Архив погоды в Вязьме

Метеограмма Вязьма
Пятница, 19 Октября
Время местн. Темп Ветер Видим Явления Облачность нижн/средн/верх Атм. давл. Влжн Точка росы ВНГО R Сост. почвы Tg s
Напр Скр Прв ур.ст ур.м изм
15:00 +17° С-З 4 - 10 км - переменная облачность 741 763 -0.1 58% +8.8° 1 км - - - -
12:00 +16.8° З,С-З 3 - 10 км - незначительная облачность 741 763 -0.2 63% +9.7° более 2.5 км - - - -
09:00 +10.1° штиль 0 - 2 км дымка {туман} ясно 741 764 -0.2 97% +9.6° более 2.5 км 0 Влажная (без луж) - -
06:00 +7.8° Ю 1 - 4 км дымка ясно 741 764 -0.8 97% +7.4° более 2.5 км - - - -
03:00 +9.7° Ю,Ю-З 1 - 10 км - ясно 742 765 -0.6 92% +8.4° более 2.5 км - - - -
00:00 +10.5° Ю 2 - 10 км - ясно 743 765 -0.8 84% +7.9° более 2.5 км - - - -
Четверг, 18 Октября
Время местн. Темп Ветер Видим Явления Облачность нижн/средн/верх Атм. давл. Влжн Точка росы ВНГО R Сост. почвы Tg s
Напр Скр Прв ур.ст ур.м изм
21:00 +10.5° Ю 2 - 10 км - ясно 744 766 -0.5 85% +8.1° более 2.5 км 0 - - -
18:00 +14.9° Ю 2 - 10 км - переменная облачность 744 766 -0.8 66% +8.6° более 2.5 км - - - -
15:00 +20° З,Ю-З 4 - 10 км - переменная облачность 745 767 -1.1 46% +7.9° более 2.5 км - - - -
12:00 +17.6° Ю-З 3 - 10 км - ясно 746 768 -0.5 53% +7.8° более 2.5 км - - - -
09:00 +6.2° Ю-В 1 - 4 км дымка {туман} ясно 747 769 -0.2 99% +6° более 2.5 км 0 - - -
06:00 +1.7° штиль 0 - 2 км дымка ясно 747 770 -0.5 99% +1.6° более 2.5 км - - - -
03:00 +2.3° штиль 0 - 2 км дымка ясно 747 770 -0.3 99% +2.2° более 2.5 км - - - -
00:00 +4.2° штиль 0 - 4 км дымка ясно 748 771 0 98% +3.9° более 2.5 км - - - -
Среда, 17 Октября
Время местн. Темп Ветер Видим Явления Облачность нижн/средн/верх Атм. давл. Влжн Точка росы ВНГО R Сост. почвы Tg s
Напр Скр Прв ур.ст ур.м изм
21:00 +6.2° штиль 0 - 4 км дымка ясно 748 770 +0.1 95% +5.5° более 2.5 км 0 - - -
18:00 +13° Ю 1 - 10 км - ясно 748 770 -0.3 66% +6.7° более 2.5 км - - - -
15:00 +19.2° З 3 - 10 км - ясно 748 770 -0.4 44% +6.7° более 2.5 км - - - -
12:00 +17.5° Ю-З 2 - 10 км - ясно 748 770 +0.3 49% +6.6° более 2.5 км - - - -
09:00 +8.6° штиль 0 - 4 км дымка {туман} ясно 748 771 +0.4 96% +8° более 2.5 км 0 - - -
06:00 +4.1° Ю-З 1 - 4 км дымка ясно 748 771 0 98% +3.8° более 2.5 км - - - -
03:00 +9.7° З 2 - 10 км - ясно 748 770 +0.1 78% +6.1° более 2.5 км - - - -
00:00 +10.9° З 2 - 10 км - ясно 748 770 +0.1 70% +5.6° более 2.5 км - - - -
Вторник, 16 Октября
Время местн. Темп Ветер Видим Явления Облачность нижн/средн/верх Атм. давл. Влжн Точка росы ВНГО R Сост. почвы Tg s
Напр Скр Прв ур.ст ур.м изм
21:00 +11.6° Ю-З 4 - 10 км - ясно 747 770 -0.2 61% +4.4° более 2.5 км 0 - - -
18:00 +12.7° Ю,Ю-З 2 - 10 км - ясно 748 770 -0.5 55% +4° более 2.5 км - - - -
15:00 +18.6° З,Ю-З 4 - 10 км - ясно 748 770 -0.7 36% +3.1° более 2.5 км - - - -
12:00 +16.5° З 3 - 10 км - незначительная облачность 749 771 -0.3 42% +3.6° более 2.5 км - - - -